createdAt,value
2018-10-11T00:00:33.699Z,23.85
2018-10-11T00:03:01.893Z,30.37
2018-10-11T00:05:30.131Z,29.37
2018-10-11T00:07:59.120Z,30.52
2018-10-11T00:10:27.331Z,26.93
2018-10-11T00:12:55.514Z,21.93
2018-10-11T00:15:23.706Z,17.90
2018-10-11T00:17:51.891Z,26.05
2018-10-11T00:20:20.067Z,33.88
2018-10-11T00:22:48.206Z,28.65
2018-10-11T00:25:16.383Z,28.83
2018-10-11T00:27:44.555Z,33.80
2018-10-11T00:30:12.718Z,23.00
2018-10-11T00:32:41.232Z,27.25
2018-10-11T00:35:09.382Z,30.55
2018-10-11T00:37:37.575Z,31.05
2018-10-11T00:40:06.931Z,29.15
2018-10-11T00:42:35.118Z,27.77
2018-10-11T00:45:03.280Z,28.98
2018-10-11T00:47:31.469Z,26.68
2018-10-11T00:49:59.647Z,21.87
2018-10-11T00:52:27.842Z,22.05
2018-10-11T00:54:56.087Z,23.57
2018-10-11T00:57:24.239Z,31.52
2018-10-11T00:59:52.392Z,28.90
2018-10-11T01:02:20.570Z,28.30
2018-10-11T01:04:48.723Z,24.87
2018-10-11T01:07:16.882Z,30.00
2018-10-11T01:09:45.040Z,32.13
2018-10-11T01:12:13.154Z,33.45
2018-10-11T01:14:41.294Z,32.60
2018-10-11T01:17:09.440Z,28.02
2018-10-11T01:19:37.580Z,34.30
2018-10-11T01:22:05.716Z,26.80
2018-10-11T01:24:33.841Z,29.32
2018-10-11T01:27:01.959Z,29.37
2018-10-11T01:29:30.147Z,31.68
2018-10-11T01:31:58.227Z,32.90
2018-10-11T01:34:26.347Z,36.17
2018-10-11T01:36:54.463Z,33.35
2018-10-11T01:39:22.582Z,34.55
2018-10-11T01:41:50.686Z,34.45
2018-10-11T01:44:18.808Z,31.95
2018-10-11T01:46:46.936Z,27.70
2018-10-11T01:49:15.087Z,25.48
2018-10-11T01:51:43.191Z,26.93
2018-10-11T01:54:11.314Z,30.92
2018-10-11T01:56:39.448Z,29.98
2018-10-11T01:59:07.531Z,34.20
2018-10-11T02:01:35.651Z,32.05
2018-10-11T02:04:03.786Z,37.05
2018-10-11T02:06:31.921Z,29.27
2018-10-11T02:09:00.072Z,30.75
2018-10-11T02:11:28.217Z,25.57
2018-10-11T02:13:56.363Z,31.48
2018-10-11T02:16:24.519Z,40.70
2018-10-11T02:18:52.658Z,27.82
2018-10-11T02:21:20.789Z,28.52
2018-10-11T02:23:48.922Z,33.73
2018-10-11T02:26:19.119Z,31.02
2018-10-11T02:28:47.220Z,33.45
2018-10-11T02:31:15.406Z,35.55
2018-10-11T02:33:43.569Z,27.52
2018-10-11T02:36:11.706Z,40.30
2018-10-11T02:38:39.824Z,33.65
2018-10-11T02:41:07.938Z,29.80
2018-10-11T02:43:36.077Z,31.02
2018-10-11T02:46:04.182Z,34.03
2018-10-11T02:48:32.263Z,31.95
2018-10-11T02:51:00.375Z,29.70
2018-10-11T02:53:28.486Z,38.92
2018-10-11T02:55:56.664Z,35.45
2018-10-11T02:58:36.232Z,34.45
2018-10-11T03:01:04.357Z,38.53
2018-10-11T03:03:32.490Z,33.30
2018-10-11T03:06:01.253Z,28.52
2018-10-11T03:08:29.479Z,27.67
2018-10-11T03:10:57.986Z,30.32
2018-10-11T03:13:26.179Z,24.98
2018-10-11T03:15:54.383Z,36.30
2018-10-11T03:18:22.579Z,34.55
2018-10-11T03:20:50.759Z,30.77
2018-10-11T03:23:18.911Z,36.33
2018-10-11T03:25:47.122Z,33.02
2018-10-11T03:28:16.607Z,35.85
2018-10-11T03:30:44.977Z,29.05
2018-10-11T03:33:14.095Z,31.97
2018-10-11T03:35:43.291Z,34.88
2018-10-11T03:38:11.490Z,26.97
2018-10-11T03:40:39.671Z,23.30
2018-10-11T03:43:07.841Z,34.50
2018-10-11T03:45:35.998Z,30.32
2018-10-11T03:48:04.167Z,31.40
2018-10-11T03:50:32.337Z,28.07
2018-10-11T03:53:00.503Z,34.18
2018-10-11T03:55:28.698Z,26.27
2018-10-11T03:57:56.892Z,34.05
2018-10-11T04:00:25.647Z,34.73
2018-10-11T04:02:53.815Z,33.42
2018-10-11T04:05:21.995Z,24.47
2018-10-11T04:07:50.151Z,21.62
2018-10-11T04:10:18.274Z,23.12
2018-10-11T04:12:46.363Z,21.33
2018-10-11T04:15:14.457Z,21.90
2018-10-11T04:17:42.629Z,31.68
2018-10-11T04:20:10.723Z,28.45
2018-10-11T04:22:38.834Z,27.00
2018-10-11T04:25:06.917Z,26.25
2018-10-11T04:27:35.026Z,26.10
2018-10-11T04:30:03.212Z,25.05
2018-10-11T04:32:31.292Z,32.03
2018-10-11T04:34:59.389Z,26.30
2018-10-11T04:37:27.492Z,26.52
2018-10-11T04:39:55.587Z,23.10
2018-10-11T04:42:23.711Z,24.65
2018-10-11T04:44:51.798Z,21.23
2018-10-11T04:47:19.899Z,27.05
2018-10-11T04:49:47.989Z,32.38
2018-10-11T04:52:16.087Z,27.25
2018-10-11T04:54:44.210Z,28.27
2018-10-11T04:57:12.314Z,25.72
2018-10-11T04:59:40.593Z,36.68
2018-10-11T05:02:08.705Z,31.40
2018-10-11T05:04:36.859Z,32.83
2018-10-11T05:07:04.951Z,31.00
2018-10-11T05:09:33.070Z,31.37
2018-10-11T05:12:01.234Z,30.60
2018-10-11T05:14:29.359Z,30.45
2018-10-11T05:16:57.458Z,31.68
2018-10-11T05:19:25.629Z,29.92
2018-10-11T05:21:53.719Z,24.67
2018-10-11T05:24:21.862Z,27.87
2018-10-11T05:26:49.974Z,32.85
2018-10-11T05:29:18.122Z,31.70
2018-10-11T05:31:46.370Z,21.60
2018-10-11T05:34:14.495Z,28.07
2018-10-11T05:36:42.641Z,30.90
2018-10-11T05:39:10.760Z,32.65
2018-10-11T05:41:38.874Z,36.28
2018-10-11T05:44:09.177Z,31.68
2018-10-11T05:46:37.307Z,28.75
2018-10-11T05:49:05.939Z,20.25
2018-10-11T05:51:34.475Z,27.02
2018-10-11T05:54:03.064Z,31.25
2018-10-11T05:56:32.570Z,27.25
2018-10-11T05:59:00.647Z,32.67
2018-10-11T06:01:28.785Z,32.20
2018-10-11T06:03:57.725Z,24.67
2018-10-11T06:06:25.828Z,32.45
2018-10-11T06:08:54.143Z,23.38
2018-10-11T06:11:22.267Z,20.70
2018-10-11T06:13:50.963Z,35.35
2018-10-11T06:16:19.102Z,28.10
2018-10-11T06:18:47.211Z,25.97
2018-10-11T06:21:15.426Z,33.35
2018-10-11T06:23:43.553Z,33.60
2018-10-11T06:26:12.104Z,31.73
2018-10-11T06:28:40.241Z,42.78
2018-10-11T06:31:08.344Z,30.68
2018-10-11T06:33:36.451Z,31.10
2018-10-11T06:36:04.591Z,23.80
2018-10-11T06:38:32.670Z,31.55
2018-10-11T06:41:00.779Z,36.90
2018-10-11T06:43:28.874Z,29.30
2018-10-11T06:45:56.983Z,35.20
2018-10-11T06:48:25.099Z,27.82
2018-10-11T06:50:53.263Z,29.77
2018-10-11T06:53:21.371Z,29.30
2018-10-11T06:55:49.810Z,23.80
2018-10-11T06:58:17.930Z,27.32
2018-10-11T07:00:46.120Z,23.73
2018-10-11T07:03:14.251Z,24.15
2018-10-11T07:05:42.386Z,29.32
2018-10-11T07:08:10.550Z,19.25
2018-10-11T07:10:38.707Z,16.57
2018-10-11T07:13:06.867Z,32.73
2018-10-11T07:15:35.040Z,20.30
2018-10-11T07:18:03.208Z,22.67
2018-10-11T07:20:31.372Z,19.90
2018-10-11T07:22:59.530Z,18.85
2018-10-11T07:25:27.723Z,19.80
2018-10-11T07:27:55.931Z,21.40
2018-10-11T07:30:24.201Z,21.30
2018-10-11T07:32:52.406Z,20.00
2018-10-11T07:35:20.694Z,24.65
2018-10-11T07:37:48.758Z,19.35
2018-10-11T07:40:16.970Z,18.95
2018-10-11T07:42:45.081Z,16.15
2018-10-11T07:45:13.231Z,21.12
2018-10-11T07:47:41.394Z,25.45
2018-10-11T07:50:09.571Z,27.85
2018-10-11T07:52:38.495Z,18.60
2018-10-11T07:55:06.610Z,19.82
2018-10-11T07:57:34.783Z,16.70
2018-10-11T08:00:02.983Z,21.65
2018-10-11T08:02:31.175Z,16.77
2018-10-11T08:04:59.345Z,19.02
2018-10-11T08:07:27.647Z,19.40
2018-10-11T08:09:55.750Z,18.45
2018-10-11T08:12:23.925Z,15.68
2018-10-11T08:14:52.097Z,15.40
2018-10-11T08:17:20.686Z,19.90
2018-10-11T08:19:48.583Z,23.83
2018-10-11T08:22:16.702Z,26.35
2018-10-11T08:24:44.967Z,27.75
2018-10-11T08:27:13.091Z,23.75
2018-10-11T08:29:41.203Z,21.25
2018-10-11T08:32:09.370Z,17.05
2018-10-11T08:34:37.560Z,20.92
2018-10-11T08:37:05.764Z,19.17
2018-10-11T08:39:33.915Z,18.42
2018-10-11T08:42:02.090Z,17.87
2018-10-11T08:44:30.263Z,20.68
2018-10-11T08:46:58.418Z,20.45
2018-10-11T08:49:26.607Z,17.67
2018-10-11T08:51:54.793Z,20.75
2018-10-11T08:54:28.509Z,21.35
2018-10-11T08:56:56.723Z,14.98
2018-10-11T08:59:24.989Z,18.98
2018-10-11T09:01:53.083Z,18.45
2018-10-11T09:04:21.253Z,20.20
2018-10-11T09:06:49.443Z,19.02
2018-10-11T09:09:17.603Z,18.90
2018-10-11T09:11:45.804Z,17.42
2018-10-11T09:14:13.928Z,17.98
2018-10-11T09:16:42.068Z,18.12
2018-10-11T09:19:10.186Z,17.98
2018-10-11T09:21:38.295Z,18.17
2018-10-11T09:24:06.428Z,19.70
2018-10-11T09:26:34.583Z,20.35
2018-10-11T09:29:02.707Z,18.37
2018-10-11T09:31:30.829Z,19.07
2018-10-11T09:33:58.999Z,18.70
2018-10-11T09:36:27.366Z,26.60
2018-10-11T09:38:55.416Z,18.92
2018-10-11T09:41:23.516Z,15.63
2018-10-11T09:43:51.632Z,11.85
2018-10-11T09:46:19.815Z,15.85
2018-10-11T09:48:48.060Z,16.65
2018-10-11T09:51:16.111Z,13.10
2018-10-11T09:53:44.212Z,16.70
2018-10-11T09:56:12.315Z,14.45
2018-10-11T09:58:40.431Z,15.88
2018-10-11T10:01:13.783Z,16.80
2018-10-11T10:03:41.897Z,15.63
2018-10-11T10:06:10.040Z,15.18
2018-10-11T10:08:38.218Z,12.20
2018-10-11T10:11:06.351Z,17.62
2018-10-11T10:13:34.467Z,17.45
2018-10-11T10:16:02.572Z,13.65
2018-10-11T10:18:30.699Z,14.38
2018-10-11T10:20:58.857Z,15.55
2018-10-11T10:23:26.943Z,13.60
2018-10-11T10:25:55.063Z,15.15
2018-10-11T10:28:23.147Z,14.95
2018-10-11T10:30:52.554Z,15.65
2018-10-11T10:33:21.648Z,15.25
2018-10-11T10:35:49.871Z,15.50
2018-10-11T10:38:17.969Z,15.95
2018-10-11T10:40:46.115Z,14.50
2018-10-11T10:43:14.220Z,12.63
2018-10-11T10:45:42.382Z,10.20
2018-10-11T10:48:10.567Z,15.03
2018-10-11T10:50:38.750Z,15.08
2018-10-11T10:53:06.912Z,13.03
2018-10-11T10:55:35.099Z,13.93
2018-10-11T10:58:03.266Z,13.60
2018-10-11T11:00:31.462Z,12.43
2018-10-11T11:02:59.626Z,12.50
2018-10-11T11:05:27.862Z,11.57
2018-10-11T11:07:56.047Z,11.43
2018-10-11T11:10:24.254Z,10.08
2018-10-11T11:12:52.439Z,9.83
2018-10-11T11:15:20.735Z,9.90
2018-10-11T11:17:48.911Z,12.18
2018-10-11T11:20:17.079Z,8.75
2018-10-11T11:22:45.249Z,7.78
2018-10-11T11:25:13.470Z,8.03
2018-10-11T11:27:41.603Z,6.72
2018-10-11T11:30:09.770Z,10.65
2018-10-11T11:32:38.011Z,6.90
2018-10-11T11:35:06.162Z,8.68
2018-10-11T11:37:34.327Z,6.92
2018-10-11T11:40:02.546Z,10.68
2018-10-11T11:42:30.698Z,8.33
2018-10-11T11:44:58.882Z,8.20
2018-10-11T11:47:27.051Z,9.38
2018-10-11T11:49:55.214Z,7.53
2018-10-11T11:52:23.390Z,9.55
2018-10-11T11:54:51.558Z,9.15
2018-10-11T11:57:19.767Z,8.35
2018-10-11T11:59:47.963Z,8.45
2018-10-11T12:02:16.269Z,10.98
2018-10-11T12:04:44.335Z,8.40
2018-10-11T12:07:12.513Z,6.53
2018-10-11T12:09:40.658Z,6.83
2018-10-11T12:12:08.950Z,10.08
2018-10-11T12:14:37.124Z,7.35
2018-10-11T12:17:05.312Z,7.00
2018-10-11T12:19:33.499Z,6.55
2018-10-11T12:22:01.697Z,7.05
2018-10-11T12:24:29.852Z,8.75
2018-10-11T12:26:58.018Z,7.87
2018-10-11T12:29:26.207Z,6.03
2018-10-11T12:31:54.396Z,6.95
2018-10-11T12:34:22.598Z,6.78
2018-10-11T12:36:50.769Z,6.58
2018-10-11T12:39:18.946Z,7.22
2018-10-11T12:41:47.131Z,6.03
2018-10-11T12:44:15.291Z,6.03
2018-10-11T12:46:43.487Z,7.65
2018-10-11T12:49:11.651Z,6.40
2018-10-11T12:51:39.861Z,6.72
2018-10-11T12:54:08.061Z,6.22
2018-10-11T12:56:36.325Z,6.97
2018-10-11T12:59:04.436Z,6.00
2018-10-11T13:01:32.614Z,5.30
2018-10-11T13:04:00.851Z,5.97
2018-10-11T13:06:29.064Z,4.45
2018-10-11T13:08:57.242Z,5.53
2018-10-11T13:11:25.434Z,4.75
2018-10-11T13:13:53.623Z,5.25
2018-10-11T13:16:21.787Z,4.58
2018-10-11T13:18:49.970Z,5.33
2018-10-11T13:21:18.126Z,7.25
2018-10-11T13:23:46.326Z,5.12
2018-10-11T13:26:14.502Z,6.05
2018-10-11T13:28:42.665Z,4.72
2018-10-11T13:31:10.840Z,7.78
2018-10-11T13:33:39.003Z,8.18
2018-10-11T13:36:07.155Z,5.33
2018-10-11T13:38:35.324Z,4.72
2018-10-11T13:41:03.918Z,4.30
2018-10-11T13:43:31.638Z,5.67
2018-10-11T13:46:01.976Z,5.17
2018-10-11T13:48:27.934Z,5.83
2018-10-11T13:50:56.115Z,5.95
2018-10-11T13:53:24.800Z,5.50
2018-10-11T13:55:54.896Z,5.00
2018-10-11T13:58:21.931Z,4.50
2018-10-11T14:00:50.105Z,5.40
2018-10-11T14:03:18.240Z,4.92
2018-10-11T14:05:46.431Z,6.42
2018-10-11T14:08:14.615Z,4.95
2018-10-11T14:10:42.888Z,5.97
2018-10-11T14:13:15.089Z,6.47
2018-10-11T14:15:39.159Z,6.28
2018-10-11T14:18:10.418Z,6.37
2018-10-11T14:20:35.497Z,4.40
2018-10-11T14:23:04.290Z,4.62
2018-10-11T14:25:32.456Z,5.70
2018-10-11T14:28:00.647Z,4.85
2018-10-11T14:30:28.831Z,3.70
2018-10-11T14:32:57.006Z,4.65
2018-10-11T14:35:25.314Z,5.72
2018-10-11T14:37:53.531Z,4.10
2018-10-11T14:40:22.078Z,4.85
2018-10-11T14:42:50.246Z,4.33
2018-10-11T14:45:18.438Z,4.67
2018-10-11T14:47:46.610Z,8.65
2018-10-11T14:50:14.827Z,3.92
2018-10-11T14:52:43.003Z,4.58
2018-10-11T14:55:11.193Z,5.33
2018-10-11T14:57:39.355Z,4.00
2018-10-11T15:00:07.822Z,5.28
2018-10-11T15:02:36.038Z,3.50
2018-10-11T15:05:04.203Z,3.87
2018-10-11T15:07:32.362Z,3.87
2018-10-11T15:10:00.523Z,3.80
2018-10-11T15:12:28.722Z,5.20
2018-10-11T15:14:56.871Z,4.22
2018-10-11T15:17:25.018Z,3.02
2018-10-11T15:19:53.194Z,4.22
2018-10-11T15:22:21.332Z,3.95
2018-10-11T15:24:49.500Z,5.72
2018-10-11T15:27:17.662Z,4.72
2018-10-11T15:29:45.934Z,5.67
2018-10-11T15:32:14.007Z,3.87
2018-10-11T15:34:42.181Z,4.00
2018-10-11T15:37:10.398Z,3.58
2018-10-11T15:39:38.575Z,3.15
2018-10-11T15:42:07.086Z,4.15
2018-10-11T15:44:35.291Z,3.70
2018-10-11T15:47:03.467Z,3.30
2018-10-11T15:49:31.669Z,3.60
2018-10-11T15:51:59.872Z,4.87
2018-10-11T15:54:28.011Z,4.17
2018-10-11T15:56:56.212Z,4.60
2018-10-11T15:59:24.396Z,4.12
2018-10-11T16:01:52.539Z,3.67
2018-10-11T16:04:20.704Z,4.22
2018-10-11T16:06:48.954Z,3.80
2018-10-11T16:09:17.219Z,3.85
2018-10-11T16:11:45.279Z,5.80
2018-10-11T16:14:13.551Z,7.37
2018-10-11T16:16:41.746Z,4.55
2018-10-11T16:19:09.974Z,4.80
2018-10-11T16:21:38.164Z,6.95
2018-10-11T16:24:06.322Z,6.55
2018-10-11T16:26:34.486Z,9.40
2018-10-11T16:29:02.697Z,5.17
2018-10-11T16:31:30.855Z,6.65
2018-10-11T16:33:59.066Z,8.75
2018-10-11T16:36:27.246Z,5.65
2018-10-11T16:38:55.410Z,6.37
2018-10-11T16:41:24.023Z,4.47
2018-10-11T16:43:52.497Z,7.40
2018-10-11T16:46:20.703Z,6.35
2018-10-11T16:48:48.895Z,5.28
2018-10-11T16:51:17.081Z,4.83
2018-10-11T16:53:45.340Z,5.97
2018-10-11T16:56:13.617Z,4.87
2018-10-11T16:58:41.894Z,5.92
2018-10-11T17:01:10.055Z,5.37
2018-10-11T17:03:38.257Z,5.00
2018-10-11T17:06:06.470Z,6.40
2018-10-11T17:08:34.640Z,6.95
2018-10-11T17:11:02.802Z,7.67
2018-10-11T17:13:30.971Z,5.45
2018-10-11T17:15:59.146Z,6.22
2018-10-11T17:18:27.331Z,7.58
2018-10-11T17:20:55.491Z,6.45
2018-10-11T17:23:23.812Z,5.10
2018-10-11T17:25:52.027Z,6.22
2018-10-11T17:28:20.342Z,6.90
2018-10-11T17:30:48.512Z,5.28
2018-10-11T17:33:16.691Z,6.03
2018-10-11T17:35:44.884Z,5.60
2018-10-11T17:38:13.035Z,5.33
2018-10-11T17:40:41.187Z,5.70
2018-10-11T17:43:09.327Z,4.53
2018-10-11T17:45:37.563Z,5.85
2018-10-11T17:48:05.768Z,4.45
2018-10-11T17:50:33.906Z,5.17
2018-10-11T17:53:02.051Z,6.28
2018-10-11T17:55:30.227Z,11.48
2018-10-11T17:57:58.447Z,6.67
2018-10-11T18:00:26.650Z,6.25
2018-10-11T18:02:54.813Z,6.83
2018-10-11T18:05:23.051Z,5.47
2018-10-11T18:07:51.195Z,7.83
2018-10-11T18:10:19.382Z,7.97
2018-10-11T18:12:47.556Z,7.30
2018-10-11T18:15:15.784Z,6.83
2018-10-11T18:17:43.982Z,7.42
2018-10-11T18:20:12.166Z,5.80
2018-10-11T18:22:40.319Z,8.70
2018-10-11T18:25:10.546Z,6.45
2018-10-11T18:27:38.763Z,5.20
2018-10-11T18:30:09.277Z,7.25
2018-10-11T18:32:37.526Z,5.55
2018-10-11T18:35:06.743Z,5.58
2018-10-11T18:37:34.910Z,4.33
2018-10-11T18:40:03.283Z,4.75
2018-10-11T18:42:32.734Z,5.40
2018-10-11T18:45:00.903Z,5.80
2018-10-11T18:47:29.074Z,6.20
2018-10-11T18:49:57.452Z,6.35
2018-10-11T18:52:25.742Z,6.58
2018-10-11T18:54:53.938Z,8.75
2018-10-11T18:57:22.114Z,7.33
2018-10-11T18:59:50.276Z,6.70
2018-10-11T19:02:18.460Z,6.47
2018-10-11T19:04:46.734Z,5.95
2018-10-11T19:07:14.919Z,6.65
2018-10-11T19:09:43.098Z,5.33
2018-10-11T19:12:11.273Z,5.75
2018-10-11T19:14:39.449Z,7.67
2018-10-11T19:17:07.608Z,7.90
2018-10-11T19:19:35.759Z,9.23
2018-10-11T19:22:03.915Z,9.08
2018-10-11T19:24:32.062Z,6.67
2018-10-11T19:27:00.215Z,8.03
2018-10-11T19:29:28.403Z,10.75
2018-10-11T19:31:56.586Z,12.07
2018-10-11T19:34:24.759Z,8.55
2018-10-11T19:36:52.915Z,10.08
2018-10-11T19:39:21.193Z,8.03
2018-10-11T19:41:49.246Z,9.75
2018-10-11T19:44:17.418Z,10.20
2018-10-11T19:46:45.595Z,7.50
2018-10-11T19:49:13.748Z,8.28
2018-10-11T19:51:41.938Z,10.63
2018-10-11T19:54:10.092Z,10.32
2018-10-11T19:56:38.241Z,9.05
2018-10-11T19:59:06.387Z,8.68
2018-10-11T20:01:34.547Z,11.68
2018-10-11T20:04:02.709Z,8.28
2018-10-11T20:06:30.928Z,15.05
2018-10-11T20:08:59.107Z,12.33
2018-10-11T20:11:27.258Z,11.25
2018-10-11T20:13:55.403Z,8.43
2018-10-11T20:16:23.579Z,11.15
2018-10-11T20:18:51.731Z,9.28
2018-10-11T20:21:19.895Z,12.65
2018-10-11T20:23:48.145Z,7.78
2018-10-11T20:26:16.322Z,12.82
2018-10-11T20:28:44.484Z,10.93
2018-10-11T20:31:12.652Z,9.48
2018-10-11T20:33:40.803Z,13.68
2018-10-11T20:36:08.968Z,12.15
2018-10-11T20:38:37.196Z,11.83
2018-10-11T20:41:05.351Z,12.10
2018-10-11T20:43:33.533Z,14.47
2018-10-11T20:46:01.675Z,12.60
2018-10-11T20:48:29.815Z,8.83
2018-10-11T20:50:58.014Z,10.72
2018-10-11T20:53:26.292Z,9.38
2018-10-11T20:55:54.442Z,10.93
2018-10-11T20:58:22.691Z,16.10
2018-10-11T21:00:50.844Z,12.15
2018-10-11T21:03:19.019Z,11.57
2018-10-11T21:05:47.186Z,13.68
2018-10-11T21:08:15.326Z,10.25
2018-10-11T21:10:43.479Z,8.30
2018-10-11T21:13:11.623Z,8.38
2018-10-11T21:15:39.806Z,10.00
2018-10-11T21:18:07.962Z,12.90
2018-10-11T21:20:36.160Z,15.55
2018-10-11T21:23:04.274Z,12.07
2018-10-11T21:25:32.414Z,9.00
2018-10-11T21:28:00.605Z,12.50
2018-10-11T21:30:28.724Z,13.38
2018-10-11T21:32:56.902Z,11.15
2018-10-11T21:35:25.119Z,9.60
2018-10-11T21:37:53.352Z,9.68
2018-10-11T21:40:21.546Z,9.18
2018-10-11T21:42:49.782Z,8.78
2018-10-11T21:45:17.930Z,10.23
2018-10-11T21:47:46.133Z,9.88
2018-10-11T21:50:14.299Z,9.80
2018-10-11T21:52:42.496Z,10.28
2018-10-11T21:55:10.606Z,9.08
2018-10-11T21:57:38.753Z,8.50
2018-10-11T22:00:07.086Z,8.85
2018-10-11T22:02:35.337Z,9.03
2018-10-11T22:05:03.483Z,11.80
2018-10-11T22:07:31.647Z,12.05
2018-10-11T22:09:59.807Z,10.80
2018-10-11T22:12:27.971Z,9.98
2018-10-11T22:14:56.255Z,11.38
2018-10-11T22:17:24.312Z,9.98
2018-10-11T22:19:52.483Z,12.93
2018-10-11T22:22:20.660Z,12.18
2018-10-11T22:24:48.829Z,10.05
2018-10-11T22:27:16.986Z,13.30
2018-10-11T22:29:45.175Z,10.28
2018-10-11T22:32:13.347Z,10.90
2018-10-11T22:34:41.523Z,11.80
2018-10-11T22:37:09.758Z,16.90
2018-10-11T22:39:37.872Z,12.90
2018-10-11T22:42:06.043Z,15.35
2018-10-11T22:44:34.202Z,12.40
2018-10-11T22:47:02.351Z,11.05
2018-10-11T22:49:30.521Z,16.05
2018-10-11T22:51:58.667Z,12.07
2018-10-11T22:54:26.835Z,11.15
2018-10-11T22:56:54.990Z,14.10
2018-10-11T22:59:23.167Z,14.23
2018-10-11T23:01:51.322Z,11.45
2018-10-11T23:04:19.466Z,10.50
2018-10-11T23:06:47.622Z,10.85
2018-10-11T23:09:15.770Z,11.60
2018-10-11T23:11:43.975Z,11.95
2018-10-11T23:14:12.094Z,13.48
2018-10-11T23:16:40.307Z,15.03
2018-10-11T23:19:08.458Z,12.47
2018-10-11T23:21:36.620Z,16.15
2018-10-11T23:24:04.774Z,13.80
2018-10-11T23:26:32.919Z,14.58
2018-10-11T23:29:01.064Z,14.93
2018-10-11T23:31:29.234Z,12.75
2018-10-11T23:33:57.391Z,14.07
2018-10-11T23:36:25.542Z,13.93
2018-10-11T23:38:53.690Z,11.88
2018-10-11T23:41:21.847Z,11.48
2018-10-11T23:43:49.995Z,9.95
2018-10-11T23:46:18.147Z,13.78
2018-10-11T23:48:46.387Z,11.78
2018-10-11T23:51:14.544Z,10.72
2018-10-11T23:53:42.695Z,10.03
2018-10-11T23:56:10.863Z,9.95
2018-10-11T23:58:39.019Z,11.43
